sensor_id;sensor_type;location;lat;lon;timestamp;temperature;humidity
24091;DHT22;12272;52.426;17.100;2023-01-28T00:01:49;-0.30;99.90
24091;DHT22;12272;52.426;17.100;2023-01-28T00:06:52;-0.30;99.90
24091;DHT22;12272;52.426;17.100;2023-01-28T00:11:54;-0.40;99.90
24091;DHT22;12272;52.426;17.100;2023-01-28T00:16:57;0.20;99.90
24091;DHT22;12272;52.426;17.100;2023-01-28T00:21:59;0.50;99.90
24091;DHT22;12272;52.426;17.100;2023-01-28T00:27:03;0.40;99.90
24091;DHT22;12272;52.426;17.100;2023-01-28T00:32:06;0.20;99.90
24091;DHT22;12272;52.426;17.100;2023-01-28T00:37:09;-0.20;99.90
24091;DHT22;12272;52.426;17.100;2023-01-28T00:42:11;-0.20;99.90
24091;DHT22;12272;52.426;17.100;2023-01-28T00:47:14;-0.10;99.90
24091;DHT22;12272;52.426;17.100;2023-01-28T00:52:16;0.40;99.90
24091;DHT22;12272;52.426;17.100;2023-01-28T00:57:19;-0.10;99.90
24091;DHT22;12272;52.426;17.100;2023-01-28T01:02:21;0.10;99.90
24091;DHT22;12272;52.426;17.100;2023-01-28T01:07:26;-0.20;99.90
24091;DHT22;12272;52.426;17.100;2023-01-28T01:12:46;-0.30;99.90
24091;DHT22;12272;52.426;17.100;2023-01-28T01:17:49;-0.20;99.90
24091;DHT22;12272;52.426;17.100;2023-01-28T01:22:52;-0.20;99.90
24091;DHT22;12272;52.426;17.100;2023-01-28T01:27:55;-0.10;99.90
24091;DHT22;12272;52.426;17.100;2023-01-28T01:32:59;-0.20;99.90
24091;DHT22;12272;52.426;17.100;2023-01-28T01:38:02;0.30;99.90
24091;DHT22;12272;52.426;17.100;2023-01-28T01:43:17;-0.40;99.90
24091;DHT22;12272;52.426;17.100;2023-01-28T01:48:33;-0.50;99.90
24091;DHT22;12272;52.426;17.100;2023-01-28T01:53:40;-0.30;99.90
24091;DHT22;12272;52.426;17.100;2023-01-28T01:58:46;0.50;99.90
24091;DHT22;12272;52.426;17.100;2023-01-28T02:04:03;0.00;99.90
24091;DHT22;12272;52.426;17.100;2023-01-28T02:14:35;0.20;99.90
24091;DHT22;12272;52.426;17.100;2023-01-28T02:19:44;-0.50;99.90
24091;DHT22;12272;52.426;17.100;2023-01-28T02:25:18;-0.60;99.90
24091;DHT22;12272;52.426;17.100;2023-01-28T02:30:32;-0.30;99.90
24091;DHT22;12272;52.426;17.100;2023-01-28T02:35:45;-0.40;99.90
24091;DHT22;12272;52.426;17.100;2023-01-28T02:40:53;-0.60;99.90
24091;DHT22;12272;52.426;17.100;2023-01-28T02:46:35;-0.50;99.90
24091;DHT22;12272;52.426;17.100;2023-01-28T02:57:57;-0.90;99.90
24091;DHT22;12272;52.426;17.100;2023-01-28T03:08:18;-0.90;99.90
24091;DHT22;12272;52.426;17.100;2023-01-28T03:13:39;-1.00;99.90
24091;DHT22;12272;52.426;17.100;2023-01-28T03:19:01;-1.00;99.90
24091;DHT22;12272;52.426;17.100;2023-01-28T03:24:47;-0.70;99.90
24091;DHT22;12272;52.426;17.100;2023-01-28T03:30:15;-0.40;99.90
24091;DHT22;12272;52.426;17.100;2023-01-28T03:35:45;-0.10;99.90
24091;DHT22;12272;52.426;17.100;2023-01-28T03:41:09;0.20;99.90
24091;DHT22;12272;52.426;17.100;2023-01-28T03:46:13;0.40;99.90
24091;DHT22;12272;52.426;17.100;2023-01-28T03:51:15;0.50;99.90
24091;DHT22;12272;52.426;17.100;2023-01-28T03:56:19;0.30;99.90
24091;DHT22;12272;52.426;17.100;2023-01-28T04:01:27;0.00;99.90
24091;DHT22;12272;52.426;17.100;2023-01-28T04:06:29;0.10;99.90
24091;DHT22;12272;52.426;17.100;2023-01-28T04:11:48;-0.20;99.90
24091;DHT22;12272;52.426;17.100;2023-01-28T04:16:59;-0.20;99.90
24091;DHT22;12272;52.426;17.100;2023-01-28T04:22:09;0.00;99.90
24091;DHT22;12272;52.426;17.100;2023-01-28T04:27:14;-0.30;99.90
24091;DHT22;12272;52.426;17.100;2023-01-28T04:32:16;-0.60;99.90
24091;DHT22;12272;52.426;17.100;2023-01-28T04:37:42;-0.60;99.90
24091;DHT22;12272;52.426;17.100;2023-01-28T04:43:00;-1.00;99.90
24091;DHT22;12272;52.426;17.100;2023-01-28T04:48:10;-0.80;99.90
24091;DHT22;12272;52.426;17.100;2023-01-28T04:53:32;-0.60;99.90
24091;DHT22;12272;52.426;17.100;2023-01-28T04:58:41;-0.30;99.90
24091;DHT22;12272;52.426;17.100;2023-01-28T05:03:48;-0.20;99.90
24091;DHT22;12272;52.426;17.100;2023-01-28T05:09:02;-0.30;99.90
24091;DHT22;12272;52.426;17.100;2023-01-28T05:14:05;0.50;99.90
24091;DHT22;12272;52.426;17.100;2023-01-28T05:19:18;0.40;99.90
24091;DHT22;12272;52.426;17.100;2023-01-28T05:24:21;1.00;99.90
24091;DHT22;12272;52.426;17.100;2023-01-28T05:29:24;0.60;99.90
24091;DHT22;12272;52.426;17.100;2023-01-28T05:34:26;0.80;99.90
24091;DHT22;12272;52.426;17.100;2023-01-28T05:39:30;0.90;99.90
24091;DHT22;12272;52.426;17.100;2023-01-28T05:44:33;1.20;99.90
24091;DHT22;12272;52.426;17.100;2023-01-28T05:50:12;1.20;99.90
24091;DHT22;12272;52.426;17.100;2023-01-28T05:55:38;1.00;99.90
24091;DHT22;12272;52.426;17.100;2023-01-28T06:00:41;2.00;99.90
24091;DHT22;12272;52.426;17.100;2023-01-28T06:05:43;1.90;99.90
24091;DHT22;12272;52.426;17.100;2023-01-28T06:10:46;1.60;99.90
24091;DHT22;12272;52.426;17.100;2023-01-28T06:15:49;1.30;99.90
24091;DHT22;12272;52.426;17.100;2023-01-28T06:21:01;1.00;99.90
24091;DHT22;12272;52.426;17.100;2023-01-28T06:26:05;1.50;99.90
24091;DHT22;12272;52.426;17.100;2023-01-28T06:31:09;1.30;99.90
24091;DHT22;12272;52.426;17.100;2023-01-28T06:36:12;1.70;99.90
24091;DHT22;12272;52.426;17.100;2023-01-28T06:41:14;1.90;99.90
24091;DHT22;12272;52.426;17.100;2023-01-28T06:46:17;1.90;99.90
24091;DHT22;12272;52.426;17.100;2023-01-28T06:51:19;1.70;99.90
24091;DHT22;12272;52.426;17.100;2023-01-28T06:56:22;2.20;99.90
24091;DHT22;12272;52.426;17.100;2023-01-28T07:01:25;2.50;99.90
24091;DHT22;12272;52.426;17.100;2023-01-28T07:06:27;2.20;99.90
24091;DHT22;12272;52.426;17.100;2023-01-28T07:11:30;2.60;99.90
24091;DHT22;12272;52.426;17.100;2023-01-28T07:16:32;3.50;99.90
24091;DHT22;12272;52.426;17.100;2023-01-28T07:21:35;2.80;99.90
24091;DHT22;12272;52.426;17.100;2023-01-28T07:26:37;2.40;99.90
24091;DHT22;12272;52.426;17.100;2023-01-28T07:31:40;2.20;99.90
24091;DHT22;12272;52.426;17.100;2023-01-28T07:36:42;2.30;99.90
24091;DHT22;12272;52.426;17.100;2023-01-28T07:41:45;2.40;99.90
24091;DHT22;12272;52.426;17.100;2023-01-28T07:47:05;1.80;99.90
24091;DHT22;12272;52.426;17.100;2023-01-28T07:52:08;0.90;99.90
24091;DHT22;12272;52.426;17.100;2023-01-28T07:57:11;-0.20;99.90
24091;DHT22;12272;52.426;17.100;2023-01-28T08:02:14;-0.60;99.90
24091;DHT22;12272;52.426;17.100;2023-01-28T08:07:16;-0.70;99.90
24091;DHT22;12272;52.426;17.100;2023-01-28T08:12:19;-0.70;99.90
24091;DHT22;12272;52.426;17.100;2023-01-28T08:17:22;-0.80;99.90
24091;DHT22;12272;52.426;17.100;2023-01-28T08:22:25;-1.00;99.90
24091;DHT22;12272;52.426;17.100;2023-01-28T08:27:29;-0.80;99.90
24091;DHT22;12272;52.426;17.100;2023-01-28T08:32:32;-1.00;99.90
24091;DHT22;12272;52.426;17.100;2023-01-28T08:37:34;-0.90;99.90
24091;DHT22;12272;52.426;17.100;2023-01-28T08:42:37;-0.90;99.90
24091;DHT22;12272;52.426;17.100;2023-01-28T08:47:55;-0.90;99.90
24091;DHT22;12272;52.426;17.100;2023-01-28T08:53:05;-0.90;99.90
24091;DHT22;12272;52.426;17.100;2023-01-28T08:58:12;-0.90;99.90
24091;DHT22;12272;52.426;17.100;2023-01-28T09:03:16;-0.80;99.90
24091;DHT22;12272;52.426;17.100;2023-01-28T09:08:19;-0.70;99.90
24091;DHT22;12272;52.426;17.100;2023-01-28T09:13:22;-0.70;99.90
24091;DHT22;12272;52.426;17.100;2023-01-28T09:18:25;0.60;99.90
24091;DHT22;12272;52.426;17.100;2023-01-28T09:23:27;2.50;99.90
24091;DHT22;12272;52.426;17.100;2023-01-28T09:28:30;4.40;97.40
24091;DHT22;12272;52.426;17.100;2023-01-28T09:33:34;3.90;86.90
24091;DHT22;12272;52.426;17.100;2023-01-28T09:38:37;2.90;89.00
24091;DHT22;12272;52.426;17.100;2023-01-28T09:44:06;3.40;97.30
24091;DHT22;12272;52.426;17.100;2023-01-28T09:49:39;3.20;84.60
24091;DHT22;12272;52.426;17.100;2023-01-28T09:54:54;2.90;95.30
24091;DHT22;12272;52.426;17.100;2023-01-28T09:59:57;2.60;86.50
24091;DHT22;12272;52.426;17.100;2023-01-28T10:05:23;2.50;90.90
24091;DHT22;12272;52.426;17.100;2023-01-28T10:20:53;6.90;95.10
24091;DHT22;12272;52.426;17.100;2023-01-28T10:25:58;6.90;71.50
24091;DHT22;12272;52.426;17.100;2023-01-28T10:31:04;5.80;53.40
24091;DHT22;12272;52.426;17.100;2023-01-28T10:36:09;4.80;64.80
24091;DHT22;12272;52.426;17.100;2023-01-28T10:41:18;4.10;66.00
24091;DHT22;12272;52.426;17.100;2023-01-28T10:46:31;3.60;75.00
24091;DHT22;12272;52.426;17.100;2023-01-28T10:51:37;3.30;93.30
24091;DHT22;12272;52.426;17.100;2023-01-28T10:56:42;2.90;84.60
24091;DHT22;12272;52.426;17.100;2023-01-28T11:06:52;2.20;94.90
24091;DHT22;12272;52.426;17.100;2023-01-28T11:11:55;2.50;99.90
24091;DHT22;12272;52.426;17.100;2023-01-28T11:16:58;2.50;99.90
24091;DHT22;12272;52.426;17.100;2023-01-28T11:22:01;3.30;99.60
24091;DHT22;12272;52.426;17.100;2023-01-28T11:27:14;3.20;96.70
24091;DHT22;12272;52.426;17.100;2023-01-28T11:32:19;2.80;95.20
24091;DHT22;12272;52.426;17.100;2023-01-28T11:37:24;2.80;99.90
24091;DHT22;12272;52.426;17.100;2023-01-28T11:42:27;2.80;98.40
24091;DHT22;12272;52.426;17.100;2023-01-28T11:58:33;3.40;94.70
24091;DHT22;12272;52.426;17.100;2023-01-28T12:09:17;4.70;99.00
24091;DHT22;12272;52.426;17.100;2023-01-28T12:41:34;2.50;92.20
24091;DHT22;12272;52.426;17.100;2023-01-28T12:46:57;2.90;96.30
24091;DHT22;12272;52.426;17.100;2023-01-28T12:52:09;2.90;99.90
24091;DHT22;12272;52.426;17.100;2023-01-28T12:57:23;2.80;99.30
24091;DHT22;12272;52.426;17.100;2023-01-28T13:02:31;2.70;97.60
24091;DHT22;12272;52.426;17.100;2023-01-28T13:07:51;2.10;94.80
24091;DHT22;12272;52.426;17.100;2023-01-28T13:12:56;2.40;98.60
24091;DHT22;12272;52.426;17.100;2023-01-28T13:18:00;2.20;99.90
24091;DHT22;12272;52.426;17.100;2023-01-28T13:28:28;1.50;96.90
24091;DHT22;12272;52.426;17.100;2023-01-28T13:33:34;1.80;99.90
24091;DHT22;12272;52.426;17.100;2023-01-28T13:38:38;1.50;98.20
24091;DHT22;12272;52.426;17.100;2023-01-28T13:43:41;1.10;99.90
24091;DHT22;12272;52.426;17.100;2023-01-28T13:48:52;0.30;96.80
24091;DHT22;12272;52.426;17.100;2023-01-28T13:59:32;0.60;98.50
24091;DHT22;12272;52.426;17.100;2023-01-28T14:10:32;0.90;99.90
24091;DHT22;12272;52.426;17.100;2023-01-28T14:20:55;1.30;99.90
24091;DHT22;12272;52.426;17.100;2023-01-28T14:26:06;1.40;99.90
24091;DHT22;12272;52.426;17.100;2023-01-28T14:31:27;1.50;99.90
24091;DHT22;12272;52.426;17.100;2023-01-28T14:36:30;1.50;99.90
24091;DHT22;12272;52.426;17.100;2023-01-28T14:46:48;1.80;99.40
24091;DHT22;12272;52.426;17.100;2023-01-28T14:52:19;1.50;98.70
24091;DHT22;12272;52.426;17.100;2023-01-28T15:07:47;1.40;99.90
24091;DHT22;12272;52.426;17.100;2023-01-28T15:12:56;1.20;98.30
24091;DHT22;12272;52.426;17.100;2023-01-28T15:18:17;1.30;99.90
24091;DHT22;12272;52.426;17.100;2023-01-28T15:23:41;1.20;99.90
24091;DHT22;12272;52.426;17.100;2023-01-28T15:28:45;2.10;99.90
24091;DHT22;12272;52.426;17.100;2023-01-28T15:34:15;2.40;98.40
24091;DHT22;12272;52.426;17.100;2023-01-28T15:39:21;1.50;98.40
24091;DHT22;12272;52.426;17.100;2023-01-28T15:49:37;2.10;99.90
24091;DHT22;12272;52.426;17.100;2023-01-28T15:54:45;1.50;99.10
24091;DHT22;12272;52.426;17.100;2023-01-28T15:59:49;1.10;99.00
24091;DHT22;12272;52.426;17.100;2023-01-28T16:10:01;1.80;99.90
24091;DHT22;12272;52.426;17.100;2023-01-28T16:15:05;2.10;99.90
24091;DHT22;12272;52.426;17.100;2023-01-28T16:30:24;4.40;99.90
24091;DHT22;12272;52.426;17.100;2023-01-28T16:35:28;3.70;99.90
24091;DHT22;12272;52.426;17.100;2023-01-28T16:40:51;3.50;99.90
24091;DHT22;12272;52.426;17.100;2023-01-28T16:45:54;3.50;99.90
24091;DHT22;12272;52.426;17.100;2023-01-28T16:50:56;3.80;99.90
24091;DHT22;12272;52.426;17.100;2023-01-28T16:55:59;3.60;90.90
24091;DHT22;12272;52.426;17.100;2023-01-28T17:01:02;3.20;99.90
24091;DHT22;12272;52.426;17.100;2023-01-28T17:06:06;5.20;99.90
24091;DHT22;12272;52.426;17.100;2023-01-28T17:11:09;5.60;99.90
24091;DHT22;12272;52.426;17.100;2023-01-28T17:16:12;6.00;99.90
24091;DHT22;12272;52.426;17.100;2023-01-28T17:21:14;6.20;99.90
24091;DHT22;12272;52.426;17.100;2023-01-28T17:26:17;6.30;99.90
24091;DHT22;12272;52.426;17.100;2023-01-28T17:31:20;5.80;98.50
24091;DHT22;12272;52.426;17.100;2023-01-28T17:36:24;5.20;99.90
24091;DHT22;12272;52.426;17.100;2023-01-28T17:41:27;4.70;97.80
24091;DHT22;12272;52.426;17.100;2023-01-28T17:46:30;5.10;99.90
24091;DHT22;12272;52.426;17.100;2023-01-28T17:51:33;5.80;99.90
24091;DHT22;12272;52.426;17.100;2023-01-28T17:56:35;5.40;99.90
24091;DHT22;12272;52.426;17.100;2023-01-28T18:01:39;5.00;99.90
24091;DHT22;12272;52.426;17.100;2023-01-28T18:06:41;4.70;99.80
24091;DHT22;12272;52.426;17.100;2023-01-28T18:11:44;5.30;99.90
24091;DHT22;12272;52.426;17.100;2023-01-28T18:16:47;4.70;97.30
24091;DHT22;12272;52.426;17.100;2023-01-28T18:21:49;5.30;99.90
24091;DHT22;12272;52.426;17.100;2023-01-28T18:26:56;5.70;99.00
24091;DHT22;12272;52.426;17.100;2023-01-28T18:32:02;6.20;99.90
24091;DHT22;12272;52.426;17.100;2023-01-28T18:37:05;6.30;99.90
24091;DHT22;12272;52.426;17.100;2023-01-28T18:42:09;6.50;99.90
24091;DHT22;12272;52.426;17.100;2023-01-28T18:47:12;6.40;99.90
24091;DHT22;12272;52.426;17.100;2023-01-28T18:52:15;7.00;99.90
24091;DHT22;12272;52.426;17.100;2023-01-28T18:57:18;7.10;99.90
24091;DHT22;12272;52.426;17.100;2023-01-28T19:02:21;7.60;99.90
24091;DHT22;12272;52.426;17.100;2023-01-28T19:07:24;6.90;99.90
24091;DHT22;12272;52.426;17.100;2023-01-28T19:12:26;5.90;98.40
24091;DHT22;12272;52.426;17.100;2023-01-28T19:17:29;5.80;98.50
24091;DHT22;12272;52.426;17.100;2023-01-28T19:22:32;4.70;95.20
24091;DHT22;12272;52.426;17.100;2023-01-28T19:27:35;4.40;99.60
24091;DHT22;12272;52.426;17.100;2023-01-28T19:32:38;3.90;99.90
24091;DHT22;12272;52.426;17.100;2023-01-28T19:37:41;4.90;99.90
24091;DHT22;12272;52.426;17.100;2023-01-28T19:42:43;4.50;96.60
24091;DHT22;12272;52.426;17.100;2023-01-28T19:47:47;4.50;99.90
24091;DHT22;12272;52.426;17.100;2023-01-28T19:52:50;5.40;99.90
24091;DHT22;12272;52.426;17.100;2023-01-28T19:57:53;5.50;99.90
24091;DHT22;12272;52.426;17.100;2023-01-28T20:02:56;5.20;99.90
24091;DHT22;12272;52.426;17.100;2023-01-28T20:07:59;5.80;99.90
24091;DHT22;12272;52.426;17.100;2023-01-28T20:13:04;6.20;99.90
24091;DHT22;12272;52.426;17.100;2023-01-28T20:18:07;6.00;99.00
24091;DHT22;12272;52.426;17.100;2023-01-28T20:23:09;6.40;99.90
24091;DHT22;12272;52.426;17.100;2023-01-28T20:28:12;6.10;99.90
24091;DHT22;12272;52.426;17.100;2023-01-28T20:33:15;6.30;99.90
24091;DHT22;12272;52.426;17.100;2023-01-28T20:38:18;6.20;99.90
24091;DHT22;12272;52.426;17.100;2023-01-28T20:43:22;6.20;99.90
24091;DHT22;12272;52.426;17.100;2023-01-28T20:48:24;6.20;99.90
24091;DHT22;12272;52.426;17.100;2023-01-28T20:53:28;5.90;99.90
24091;DHT22;12272;52.426;17.100;2023-01-28T20:58:31;5.80;99.90
24091;DHT22;12272;52.426;17.100;2023-01-28T21:03:34;6.20;99.90
24091;DHT22;12272;52.426;17.100;2023-01-28T21:08:37;5.60;99.90
24091;DHT22;12272;52.426;17.100;2023-01-28T21:13:40;6.60;99.90
24091;DHT22;12272;52.426;17.100;2023-01-28T21:18:42;6.60;99.90
24091;DHT22;12272;52.426;17.100;2023-01-28T21:23:45;6.30;99.90
24091;DHT22;12272;52.426;17.100;2023-01-28T21:28:49;7.20;99.90
24091;DHT22;12272;52.426;17.100;2023-01-28T21:33:53;7.00;99.90
24091;DHT22;12272;52.426;17.100;2023-01-28T21:38:58;7.00;99.90
24091;DHT22;12272;52.426;17.100;2023-01-28T21:44:01;7.30;99.90
24091;DHT22;12272;52.426;17.100;2023-01-28T21:49:04;7.20;98.00
24091;DHT22;12272;52.426;17.100;2023-01-28T21:54:13;7.30;99.90
24091;DHT22;12272;52.426;17.100;2023-01-28T21:59:18;6.80;99.60
24091;DHT22;12272;52.426;17.100;2023-01-28T22:04:32;6.70;99.90
24091;DHT22;12272;52.426;17.100;2023-01-28T22:09:35;7.20;99.80
24091;DHT22;12272;52.426;17.100;2023-01-28T22:14:38;7.10;99.90
24091;DHT22;12272;52.426;17.100;2023-01-28T22:19:41;7.50;99.90
24091;DHT22;12272;52.426;17.100;2023-01-28T22:24:49;7.50;99.90
24091;DHT22;12272;52.426;17.100;2023-01-28T22:29:52;8.00;99.90
24091;DHT22;12272;52.426;17.100;2023-01-28T22:34:55;7.70;97.40
24091;DHT22;12272;52.426;17.100;2023-01-28T22:39:57;7.50;99.90
24091;DHT22;12272;52.426;17.100;2023-01-28T22:45:00;8.20;99.90
24091;DHT22;12272;52.426;17.100;2023-01-28T22:50:03;7.50;99.90
24091;DHT22;12272;52.426;17.100;2023-01-28T22:55:05;7.70;99.90
24091;DHT22;12272;52.426;17.100;2023-01-28T23:00:11;7.50;99.90
24091;DHT22;12272;52.426;17.100;2023-01-28T23:05:15;7.40;99.10
24091;DHT22;12272;52.426;17.100;2023-01-28T23:10:18;8.00;99.90
24091;DHT22;12272;52.426;17.100;2023-01-28T23:15:20;8.20;99.90
24091;DHT22;12272;52.426;17.100;2023-01-28T23:20:42;8.40;99.90
24091;DHT22;12272;52.426;17.100;2023-01-28T23:26:04;8.50;99.90
24091;DHT22;12272;52.426;17.100;2023-01-28T23:31:08;8.80;99.90
24091;DHT22;12272;52.426;17.100;2023-01-28T23:36:11;8.50;98.30
24091;DHT22;12272;52.426;17.100;2023-01-28T23:41:14;8.00;94.90
24091;DHT22;12272;52.426;17.100;2023-01-28T23:46:16;7.40;99.90
24091;DHT22;12272;52.426;17.100;2023-01-28T23:51:23;7.10;99.90
24091;DHT22;12272;52.426;17.100;2023-01-28T23:56:26;8.40;99.90
